Time;durP1;ratioP1;P1;durP2;ratioP2;P2;SDS_P1;SDS_P2;PMS_P1;PMS_P2;Temp;Humidity;BMP_temperature;BMP_pressure;BME280_temperature;BME280_humidity;BME280_pressure;Samples;Min_cycle;Max_cycle;Signal;HPM_P1;HPM_P2
2022/06/21 04:03:06;;;;;;;1999.90;999.90;;;;;;;;;;4916513;27;20234;-69
2022/06/21 04:05:54;;;;;;;1999.90;999.90;;;;;;;;;;4922069;29;20275;-68
2022/06/21 04:08:41;;;;;;;1999.90;999.90;;;;;;;;;;4925883;29;20641;-68
2022/06/21 04:11:28;;;;;;;1999.90;999.90;;;;;;;;;;4928632;29;20238;-69
2022/06/21 04:14:17;;;;;;;1999.90;999.90;;;;;;;;;;4923838;29;20218;-68
2022/06/21 04:17:06;;;;;;;1999.90;999.90;;;;;;;;;;4917310;29;20737;-68
2022/06/21 04:19:55;;;;;;;1999.90;999.90;;;;;;;;;;4915257;29;20208;-68
2022/06/21 04:22:45;;;;;;;1999.90;999.90;;;;;;;;;;4920138;29;20228;-67
2022/06/21 04:25:33;;;;;;;1999.90;999.90;;;;;;;;;;4898817;29;20220;-67
2022/06/21 04:28:20;;;;;;;1999.90;999.90;;;;;;;;;;4928542;29;20220;-68
2022/06/21 04:31:08;;;;;;;1999.90;999.90;;;;;;;;;;4916548;29;20663;-69
2022/06/21 04:33:57;;;;;;;1999.90;999.90;;;;;;;;;;4904838;29;20222;-66
2022/06/21 04:36:45;;;;;;;1999.90;999.90;;;;;;;;;;4914287;29;20210;-69
2022/06/21 04:39:32;;;;;;;1999.90;999.90;;;;;;;;;;4903064;29;20237;-68
2022/06/21 04:42:19;;;;;;;1999.90;999.90;;;;;;;;;;4897190;29;20725;-68
2022/06/21 04:45:06;;;;;;;1999.90;999.90;;;;;;;;;;4901502;29;20210;-68
2022/06/21 04:47:55;;;;;;;1999.90;999.90;;;;;;;;;;4911417;29;20209;-69
2022/06/21 04:50:41;;;;;;;1999.90;999.90;;;;;;;;;;4914796;29;20241;-69
2022/06/21 04:53:41;;;;;;;1999.90;999.90;;;;;;;;;;4908875;29;20296;-69
2022/06/21 04:56:32;;;;;;;1999.90;999.90;;;;;;;;;;4898686;29;20356;-64
2022/06/21 04:59:28;;;;;;;1999.90;999.90;;;;;;;;;;4911899;29;20214;-68
2022/06/21 05:02:16;;;;;;;1999.90;999.90;;;;;;;;;;4914814;29;20933;-66
2022/06/21 05:05:04;;;;;;;1999.90;999.90;;;;;;;;;;4910946;29;20285;-69
2022/06/21 05:07:51;;;;;;;1999.90;999.90;;;;;;;;;;4914428;29;20206;-69
2022/06/21 05:10:38;;;;;;;1999.90;999.90;;;;;;;;;;4912525;29;20724;-69
2022/06/21 05:13:26;;;;;;;1999.90;999.90;;;;;;;;;;4896924;29;20589;-68
2022/06/21 05:16:14;;;;;;;1999.90;999.90;;;;;;;;;;4914532;29;20213;-69
2022/06/21 05:19:02;;;;;;;1999.90;999.90;;;;;;;;;;4908136;29;20737;-69
2022/06/21 05:21:49;;;;;;;1999.90;999.90;;;;;;;;;;4920128;29;20233;-70
2022/06/21 05:24:34;;;;;;;1999.90;999.90;;;;;;;;;;4916760;29;20209;-67
2022/06/21 05:27:23;;;;;;;1999.90;999.90;;;;;;;;;;4911774;29;20484;-68
2022/06/21 05:30:12;;;;;;;1999.90;999.90;;;;;;;;;;4909663;29;20206;-68
2022/06/21 05:32:59;;;;;;;1999.90;999.90;;;;;;;;;;4907304;29;20232;-69
2022/06/21 05:35:46;;;;;;;1999.90;999.90;;;;;;;;;;4920976;29;20213;-69
2022/06/21 05:38:33;;;;;;;1999.90;999.90;;;;;;;;;;4918947;29;20342;-68
2022/06/21 05:41:30;;;;;;;1999.90;999.90;;;;;;;;;;4924297;29;20602;-69
2022/06/21 05:44:20;;;;;;;1999.90;999.90;;;;;;;;;;4920007;29;20213;-69
2022/06/21 05:47:08;;;;;;;1999.90;999.90;;;;;;;;;;4924800;29;20336;-69
2022/06/21 05:49:54;;;;;;;1999.90;999.90;;;;;;;;;;4926440;29;20303;-69
2022/06/21 05:52:43;;;;;;;1999.90;999.90;;;;;;;;;;4920631;29;20230;-69
2022/06/21 05:55:29;;;;;;;1999.90;999.90;;;;;;;;;;4906987;29;20215;-69
2022/06/21 05:58:17;;;;;;;1999.90;999.90;;;;;;;;;;4915797;29;20589;-69
2022/06/21 06:01:05;;;;;;;1999.90;999.90;;;;;;;;;;4915236;29;20234;-69
2022/06/21 06:03:54;;;;;;;1999.90;999.90;;;;;;;;;;4915919;29;20273;-69
2022/06/21 06:06:41;;;;;;;1999.90;999.90;;;;;;;;;;4915871;29;20210;-69
2022/06/21 06:09:28;;;;;;;1999.90;999.90;;;;;;;;;;4915561;29;20285;-68
2022/06/21 06:12:14;;;;;;;1999.90;999.90;;;;;;;;;;4915141;29;20443;-69
2022/06/21 06:15:02;;;;;;;1999.90;999.90;;;;;;;;;;4915815;29;20297;-69
2022/06/21 06:17:50;;;;;;;1999.90;999.90;;;;;;;;;;4915270;29;20698;-69
2022/06/21 06:20:39;;;;;;;1999.90;999.90;;;;;;;;;;4915755;29;20694;-69
2022/06/21 06:23:30;;;;;;;1999.90;999.90;;;;;;;;;;4915421;29;20289;-68
2022/06/21 06:26:16;;;;;;;1999.90;999.90;;;;;;;;;;4912518;29;20244;-70
2022/06/21 06:29:05;;;;;;;1999.90;999.90;;;;;;;;;;4910046;29;20253;-69
2022/06/21 06:31:52;;;;;;;1999.90;999.90;;;;;;;;;;4913814;29;20597;-69
2022/06/21 06:34:42;;;;;;;1999.90;999.90;;;;;;;;;;4917304;29;20224;-69
2022/06/21 06:37:30;;;;;;;1999.90;999.90;;;;;;;;;;4917708;29;20257;-70
2022/06/21 06:40:19;;;;;;;1999.90;999.90;;;;;;;;;;4917627;29;20686;-68
2022/06/21 06:43:06;;;;;;;1999.90;999.90;;;;;;;;;;4900158;29;20230;-69
2022/06/21 06:45:52;;;;;;;1999.90;999.90;;;;;;;;;;4900128;29;20208;-69
2022/06/21 06:48:39;;;;;;;1999.90;999.90;;;;;;;;;;4899971;29;20233;-68
2022/06/21 06:51:43;;;;;;;1999.90;999.90;;;;;;;;;;4899806;29;20265;-69
2022/06/21 06:54:33;;;;;;;1999.90;999.90;;;;;;;;;;4916687;29;20219;-70
2022/06/21 06:57:21;;;;;;;1999.90;999.90;;;;;;;;;;4912798;29;20803;-69
2022/06/21 07:00:11;;;;;;;1999.90;999.90;;;;;;;;;;4907586;29;20214;-70
2022/06/21 07:03:00;;;;;;;1999.90;999.90;;;;;;;;;;4909956;29;20222;-70
2022/06/21 07:05:48;;;;;;;1999.90;999.90;;;;;;;;;;4914163;29;20212;-70
2022/06/21 07:08:37;;;;;;;1999.90;999.90;;;;;;;;;;4907947;29;20235;-69
2022/06/21 07:11:25;;;;;;;1999.90;999.90;;;;;;;;;;4913686;29;20500;-71
2022/06/21 07:14:13;;;;;;;1999.90;999.90;;;;;;;;;;4904149;29;20585;-70
2022/06/21 07:17:02;;;;;;;1999.90;999.90;;;;;;;;;;4908786;29;20315;-69
2022/06/21 07:19:47;;;;;;;1999.90;999.90;;;;;;;;;;4913375;29;20217;-70
2022/06/21 07:22:35;;;;;;;1999.90;999.90;;;;;;;;;;4917555;29;20346;-70
2022/06/21 07:25:25;;;;;;;1999.90;999.90;;;;;;;;;;4915304;29;20253;-69
2022/06/21 07:28:13;;;;;;;1999.90;999.90;;;;;;;;;;4915702;29;20213;-70
2022/06/21 07:30:59;;;;;;;1999.90;999.90;;;;;;;;;;4915332;29;20233;-70
2022/06/21 07:33:47;;;;;;;1999.90;999.90;;;;;;;;;;4914530;29;20220;-69
2022/06/21 07:36:34;;;;;;;1999.90;999.90;;;;;;;;;;4914461;29;20213;-70
2022/06/21 07:39:21;;;;;;;1999.90;999.90;;;;;;;;;;4915063;29;20222;-71
2022/06/21 07:42:10;;;;;;;1999.90;999.90;;;;;;;;;;4909967;29;20237;-71
2022/06/21 07:44:58;;;;;;;1999.90;999.90;;;;;;;;;;4910754;29;20256;-70
2022/06/21 07:47:45;;;;;;;1999.90;999.90;;;;;;;;;;4909665;29;20261;-70
2022/06/21 07:50:33;;;;;;;1999.90;999.90;;;;;;;;;;4912125;29;20218;-70
2022/06/21 07:53:21;;;;;;;1999.90;999.90;;;;;;;;;;4907403;29;20815;-71
2022/06/21 07:56:08;;;;;;;1999.90;999.90;;;;;;;;;;4907561;29;20571;-68
2022/06/21 07:58:56;;;;;;;1999.90;999.90;;;;;;;;;;4905224;29;20232;-71
2022/06/21 08:07:54;;;;;;;1999.90;999.90;;;;;;;;;;4913086;29;20250;-71
2022/06/21 08:10:41;;;;;;;1999.90;999.90;;;;;;;;;;4915953;29;20210;-69
2022/06/21 08:13:26;;;;;;;1999.90;999.90;;;;;;;;;;4910126;29;20217;-69
2022/06/21 08:16:16;;;;;;;1999.90;999.90;;;;;;;;;;4905653;29;20297;-70
2022/06/21 08:19:03;;;;;;;1999.90;999.90;;;;;;;;;;4905579;29;20254;-70
2022/06/21 08:21:51;;;;;;;1999.90;999.90;;;;;;;;;;4912976;29;20367;-70
2022/06/21 08:24:39;;;;;;;1999.90;999.90;;;;;;;;;;4914461;29;20593;-70
2022/06/21 08:27:28;;;;;;;1999.90;999.90;;;;;;;;;;4915077;29;20354;-70
2022/06/21 08:30:15;;;;;;;1999.90;999.90;;;;;;;;;;4913222;29;20709;-69
2022/06/21 08:33:04;;;;;;;1999.90;999.90;;;;;;;;;;4910956;29;20600;-70
2022/06/21 08:35:52;;;;;;;1999.90;999.90;;;;;;;;;;4907839;29;20219;-70
2022/06/21 08:38:40;;;;;;;1999.90;999.90;;;;;;;;;;4905555;29;20427;-69
2022/06/21 08:41:55;;;;;;;1999.90;999.90;;;;;;;;;;4908513;29;20242;-70
2022/06/21 08:48:11;;;;;;;1999.90;999.90;;;;;;;;;;4912367;29;20261;-70
2022/06/21 08:51:05;;;;;;;1999.90;999.90;;;;;;;;;;4911823;29;20321;-70
2022/06/21 08:53:56;;;;;;;1999.90;999.90;;;;;;;;;;4914122;29;20281;-70
2022/06/21 08:56:42;;;;;;;1999.90;999.90;;;;;;;;;;4910054;29;20210;-70
2022/06/21 08:59:33;;;;;;;1999.90;999.90;;;;;;;;;;4914205;29;20214;-70
2022/06/21 09:02:25;;;;;;;1999.90;999.90;;;;;;;;;;4911847;29;20233;-70
2022/06/21 09:05:16;;;;;;;1999.90;999.90;;;;;;;;;;4914396;29;20210;-70
2022/06/21 09:08:11;;;;;;;1999.90;999.90;;;;;;;;;;4912975;29;20412;-70
2022/06/21 09:11:04;;;;;;;1999.90;999.90;;;;;;;;;;4914500;29;20288;-69
2022/06/21 09:13:56;;;;;;;1999.90;999.90;;;;;;;;;;4914531;29;20209;-69
2022/06/21 09:16:45;;;;;;;1999.90;999.90;;;;;;;;;;4914238;29;20269;-70
2022/06/21 09:19:35;;;;;;;1999.90;999.90;;;;;;;;;;4913341;29;20804;-70
2022/06/21 09:22:26;;;;;;;1999.90;999.90;;;;;;;;;;4903375;29;20559;-69
2022/06/21 09:25:16;;;;;;;1999.90;999.90;;;;;;;;;;4896781;29;20213;-70
2022/06/21 09:28:07;;;;;;;1999.90;999.90;;;;;;;;;;4933161;29;20700;-69
2022/06/21 09:30:55;;;;;;;1999.90;999.90;;;;;;;;;;4934798;29;20267;-70
2022/06/21 09:33:44;;;;;;;1999.90;999.90;;;;;;;;;;4912010;29;20217;-69
2022/06/21 09:36:33;;;;;;;1999.90;999.90;;;;;;;;;;4897439;29;20584;-70
2022/06/21 09:39:22;;;;;;;1999.90;999.90;;;;;;;;;;4896997;29;20218;-70
2022/06/21 09:42:09;;;;;;;1999.90;999.90;;;;;;;;;;4901635;29;20220;-69
2022/06/21 09:45:00;;;;;;;1999.90;999.90;;;;;;;;;;4912949;29;20226;-69
2022/06/21 09:47:49;;;;;;;1999.90;999.90;;;;;;;;;;4905873;29;20210;-69
2022/06/21 09:50:42;;;;;;;1999.90;999.90;;;;;;;;;;4900475;29;20215;-70
2022/06/21 09:53:33;;;;;;;1999.90;999.90;;;;;;;;;;4902708;29;20542;-71
2022/06/21 09:56:24;;;;;;;1999.90;999.90;;;;;;;;;;4911363;29;20225;-70
2022/06/21 09:59:13;;;;;;;1999.90;999.90;;;;;;;;;;4913547;29;20211;-70
2022/06/21 10:02:01;;;;;;;1999.90;999.90;;;;;;;;;;4910161;29;20242;-70
2022/06/21 10:04:52;;;;;;;1999.90;999.90;;;;;;;;;;4911636;29;20293;-70
2022/06/21 10:07:47;;;;;;;1999.90;999.90;;;;;;;;;;4905925;29;20690;-70
2022/06/21 10:10:40;;;;;;;1999.90;999.90;;;;;;;;;;4916863;29;20254;-70
2022/06/21 10:13:43;;;;;;;1999.90;999.90;;;;;;;;;;4900251;29;20239;-71
2022/06/21 10:16:50;;;;;;;1999.90;999.90;;;;;;;;;;4921035;29;20248;-71
2022/06/21 10:19:41;;;;;;;1999.90;999.90;;;;;;;;;;4900840;29;20219;-71
2022/06/21 10:22:36;;;;;;;1999.90;999.90;;;;;;;;;;4914863;29;20234;-71
2022/06/21 10:25:31;;;;;;;1999.90;999.90;;;;;;;;;;4918609;29;20221;-70
2022/06/21 10:28:26;;;;;;;1999.90;999.90;;;;;;;;;;4917438;29;20261;-71
2022/06/21 10:31:29;;;;;;;1999.90;999.90;;;;;;;;;;4904400;29;20239;-70
2022/06/21 10:34:28;;;;;;;1999.90;999.90;;;;;;;;;;4914244;29;20226;-71
2022/06/21 10:37:24;;;;;;;1999.90;999.90;;;;;;;;;;4914190;29;20582;-70
2022/06/21 10:40:27;;;;;;;1999.90;999.90;;;;;;;;;;4904873;29;20258;-71
2022/06/21 10:43:27;;;;;;;1999.90;999.90;;;;;;;;;;4903619;29;20216;-71
2022/06/21 10:46:14;;;;;;;1999.90;999.90;;;;;;;;;;4876986;29;20453;-71
2022/06/21 10:49:15;;;;;;;1999.90;999.90;;;;;;;;;;4914044;29;20233;-71
2022/06/21 10:52:11;;;;;;;1999.90;999.90;;;;;;;;;;4905980;29;20248;-70
2022/06/21 10:55:12;;;;;;;1999.90;999.90;;;;;;;;;;4902581;29;20706;-71
2022/06/21 10:58:00;;;;;;;1999.90;999.90;;;;;;;;;;4913276;29;20225;-70
2022/06/21 11:04:02;;;;;;;1999.90;999.90;;;;;;;;;;4903401;29;20251;-70
2022/06/21 11:06:50;;;;;;;1999.90;999.90;;;;;;;;;;4905420;29;20214;-70
2022/06/21 11:09:41;;;;;;;1999.90;999.90;;;;;;;;;;4913322;29;20344;-70
2022/06/21 11:15:39;;;;;;;1999.90;999.90;;;;;;;;;;4899019;29;20220;-70
2022/06/21 11:18:36;;;;;;;1999.90;999.90;;;;;;;;;;4910161;29;20247;-70
2022/06/21 11:21:28;;;;;;;1999.90;999.90;;;;;;;;;;4916289;29;20240;-70
2022/06/21 11:24:18;;;;;;;1999.90;999.90;;;;;;;;;;4916834;29;20214;-71
2022/06/21 11:27:10;;;;;;;1999.90;999.90;;;;;;;;;;4910643;29;20429;-71
2022/06/21 11:30:01;;;;;;;1999.90;999.90;;;;;;;;;;4921686;29;20335;-71
2022/06/21 11:32:49;;;;;;;1999.90;999.90;;;;;;;;;;4910439;29;20824;-70
2022/06/21 11:35:38;;;;;;;1999.90;999.90;;;;;;;;;;4920222;29;20304;-71
2022/06/21 11:38:32;;;;;;;1999.90;999.90;;;;;;;;;;4906681;29;20349;-71
2022/06/21 11:42:04;;;;;;;1999.90;999.90;;;;;;;;;;4913073;29;20236;-71
2022/06/21 11:44:31;;;;;;;1999.90;999.90;;;;;;;;;;4899455;29;20214;-70
2022/06/21 11:47:22;;;;;;;1999.90;999.90;;;;;;;;;;4900176;29;20216;-70
2022/06/21 11:50:14;;;;;;;1999.90;999.90;;;;;;;;;;4914710;29;20234;-71
2022/06/21 11:53:14;;;;;;;1999.90;999.90;;;;;;;;;;4921329;29;20352;-71
2022/06/21 11:56:02;;;;;;;1999.90;999.90;;;;;;;;;;4913499;29;20562;-71
2022/06/21 11:58:52;;;;;;;1999.90;999.90;;;;;;;;;;4912845;29;21162;-70
2022/06/21 12:01:43;;;;;;;1999.90;999.90;;;;;;;;;;4903169;29;20449;-71
2022/06/21 12:04:34;;;;;;;1999.90;999.90;;;;;;;;;;4913710;29;20216;-70
2022/06/21 12:07:23;;;;;;;1999.90;999.90;;;;;;;;;;4915757;29;20589;-71
2022/06/21 12:10:11;;;;;;;1999.90;999.90;;;;;;;;;;4915281;29;20211;-71
2022/06/21 12:13:00;;;;;;;1999.90;999.90;;;;;;;;;;4912517;29;20967;-71
2022/06/21 12:15:50;;;;;;;1999.90;999.90;;;;;;;;;;4912595;29;20212;-71
2022/06/21 12:18:37;;;;;;;1999.90;999.90;;;;;;;;;;4897140;29;20211;-71
2022/06/21 12:21:25;;;;;;;1999.90;999.90;;;;;;;;;;4897979;29;20257;-70
2022/06/21 12:24:13;;;;;;;1999.90;999.90;;;;;;;;;;4904561;29;20213;-69
2022/06/21 12:26:59;;;;;;;1999.90;999.90;;;;;;;;;;4913394;29;20335;-70
2022/06/21 12:29:44;;;;;;;1999.90;999.90;;;;;;;;;;4913224;29;20253;-70
2022/06/21 12:32:30;;;;;;;1999.90;999.90;;;;;;;;;;4897450;29;20234;-71
2022/06/21 12:35:18;;;;;;;1999.90;999.90;;;;;;;;;;4897513;29;20207;-71
2022/06/21 12:38:04;;;;;;;1999.90;999.90;;;;;;;;;;4914631;29;20221;-70
2022/06/21 12:40:55;;;;;;;1999.90;999.90;;;;;;;;;;4922079;29;20269;-70
2022/06/21 12:43:46;;;;;;;1999.90;999.90;;;;;;;;;;4922398;29;20213;-72
2022/06/21 12:46:33;;;;;;;1999.90;999.90;;;;;;;;;;4906327;29;20353;-71
2022/06/21 12:49:29;;;;;;;1999.90;999.90;;;;;;;;;;4902610;29;20285;-71
2022/06/21 12:52:20;;;;;;;1999.90;999.90;;;;;;;;;;4899658;29;20315;-71
2022/06/21 12:55:10;;;;;;;1999.90;999.90;;;;;;;;;;4912244;29;20210;-69
2022/06/21 12:57:59;;;;;;;1999.90;999.90;;;;;;;;;;4896298;29;20214;-70
2022/06/21 13:00:47;;;;;;;1999.90;999.90;;;;;;;;;;4896993;29;20233;-70
2022/06/21 13:03:44;;;;;;;1999.90;999.90;;;;;;;;;;4897079;29;20817;-69
2022/06/21 13:06:34;;;;;;;1999.90;999.90;;;;;;;;;;4897589;29;20269;-69
2022/06/21 13:09:30;;;;;;;1999.90;999.90;;;;;;;;;;4897520;29;20199;-70
2022/06/21 13:12:24;;;;;;;1999.90;999.90;;;;;;;;;;4897404;29;20229;-69
2022/06/21 13:15:43;;;;;;;1999.90;999.90;;;;;;;;;;4897414;29;20214;-71
2022/06/21 13:18:42;;;;;;;1999.90;999.90;;;;;;;;;;4839314;29;20748;-69
2022/06/21 13:21:33;;;;;;;1999.90;999.90;;;;;;;;;;4839443;29;20296;-69
2022/06/21 13:24:26;;;;;;;1999.90;999.90;;;;;;;;;;4926989;29;20230;-69
2022/06/21 13:27:18;;;;;;;1999.90;999.90;;;;;;;;;;4935092;29;20212;-69
2022/06/21 13:30:17;;;;;;;1999.90;999.90;;;;;;;;;;4934760;29;20205;-69
2022/06/21 13:33:09;;;;;;;1999.90;999.90;;;;;;;;;;4934955;29;20354;-69
2022/06/21 13:35:57;;;;;;;1999.90;999.90;;;;;;;;;;4915966;29;20304;-69
2022/06/21 13:38:44;;;;;;;1999.90;999.90;;;;;;;;;;4917383;29;20597;-69
2022/06/21 13:44:39;;;;;;;1999.90;999.90;;;;;;;;;;4921495;29;20202;-69
2022/06/21 13:47:26;;;;;;;1999.90;999.90;;;;;;;;;;4900197;29;20472;-70
2022/06/21 13:50:15;;;;;;;1999.90;999.90;;;;;;;;;;4902139;29;20708;-69
2022/06/21 13:53:06;;;;;;;1999.90;999.90;;;;;;;;;;4898857;29;20749;-69
2022/06/21 13:55:53;;;;;;;1999.90;999.90;;;;;;;;;;4906184;29;20739;-71
2022/06/21 13:58:39;;;;;;;1999.90;999.90;;;;;;;;;;4913318;29;20712;-71
2022/06/21 14:01:28;;;;;;;1999.90;999.90;;;;;;;;;;4901902;29;20242;-71
2022/06/21 14:04:17;;;;;;;1999.90;999.90;;;;;;;;;;4908045;29;20210;-69
2022/06/21 14:07:06;;;;;;;1999.90;999.90;;;;;;;;;;4897419;29;20219;-68
2022/06/21 14:09:54;;;;;;;1999.90;999.90;;;;;;;;;;4902205;29;20225;-69
2022/06/21 14:12:45;;;;;;;1999.90;999.90;;;;;;;;;;4922173;29;20228;-68
2022/06/21 14:15:32;;;;;;;1999.90;999.90;;;;;;;;;;4923003;29;20205;-68
2022/06/21 14:18:21;;;;;;;1999.90;999.90;;;;;;;;;;4923298;29;20209;-69
2022/06/21 14:21:08;;;;;;;1999.90;999.90;;;;;;;;;;4918172;29;20346;-69
2022/06/21 14:23:57;;;;;;;1999.90;999.90;;;;;;;;;;4915556;29;20209;-69
2022/06/21 14:26:47;;;;;;;1999.90;999.90;;;;;;;;;;4915558;29;20584;-69
2022/06/21 14:29:35;;;;;;;1999.90;999.90;;;;;;;;;;4915278;29;20210;-69
2022/06/21 14:32:21;;;;;;;1999.90;999.90;;;;;;;;;;4917784;29;21011;-68
2022/06/21 14:35:11;;;;;;;1999.90;999.90;;;;;;;;;;4918009;29;20297;-69
2022/06/21 14:38:01;;;;;;;1999.90;999.90;;;;;;;;;;4915198;29;20580;-70
2022/06/21 14:40:48;;;;;;;1999.90;999.90;;;;;;;;;;4906359;29;20877;-71
2022/06/21 14:43:35;;;;;;;1999.90;999.90;;;;;;;;;;4917541;29;20217;-69
2022/06/21 14:46:24;;;;;;;1999.90;999.90;;;;;;;;;;4918713;29;20226;-70
2022/06/21 14:49:12;;;;;;;1999.90;999.90;;;;;;;;;;4916674;29;20206;-71
2022/06/21 14:52:02;;;;;;;1999.90;999.90;;;;;;;;;;4921443;29;20236;-71
2022/06/21 14:54:54;;;;;;;1999.90;999.90;;;;;;;;;;4907600;29;20235;-70
2022/06/21 14:57:45;;;;;;;1999.90;999.90;;;;;;;;;;4914940;29;20208;-70
2022/06/21 15:00:36;;;;;;;1999.90;999.90;;;;;;;;;;4907773;29;20715;-71
2022/06/21 15:03:28;;;;;;;1999.90;999.90;;;;;;;;;;4910792;29;20804;-72
2022/06/21 15:06:16;;;;;;;1999.90;999.90;;;;;;;;;;4916460;29;20233;-70
2022/06/21 15:09:09;;;;;;;1999.90;999.90;;;;;;;;;;4899517;29;20210;-70
2022/06/21 15:11:57;;;;;;;1999.90;999.90;;;;;;;;;;4899206;29;20234;-70
2022/06/21 15:14:45;;;;;;;1999.90;999.90;;;;;;;;;;4907927;29;20646;-71
2022/06/21 15:17:36;;;;;;;1999.90;999.90;;;;;;;;;;4914399;29;20220;-70
2022/06/21 15:20:26;;;;;;;1999.90;999.90;;;;;;;;;;4918952;29;20226;-70
2022/06/21 15:23:15;;;;;;;1999.90;999.90;;;;;;;;;;4919840;29;20201;-71
2022/06/21 15:26:05;;;;;;;1999.90;999.90;;;;;;;;;;4917800;29;20224;-71
2022/06/21 15:28:53;;;;;;;1999.90;999.90;;;;;;;;;;4908854;29;20579;-70
2022/06/21 15:31:42;;;;;;;1999.90;999.90;;;;;;;;;;4921659;29;20310;-71
2022/06/21 15:34:31;;;;;;;1999.90;999.90;;;;;;;;;;4936691;29;20224;-71
2022/06/21 15:37:20;;;;;;;1999.90;999.90;;;;;;;;;;4921928;29;20213;-71
2022/06/21 15:40:08;;;;;;;1999.90;999.90;;;;;;;;;;4922861;29;20326;-70
2022/06/21 15:42:59;;;;;;;1999.90;999.90;;;;;;;;;;4914014;29;20261;-70
2022/06/21 15:45:46;;;;;;;1999.90;999.90;;;;;;;;;;4918031;29;20218;-70
2022/06/21 15:51:37;;;;;;;1999.90;999.90;;;;;;;;;;4924000;29;20304;-70
2022/06/21 15:54:25;;;;;;;1999.90;999.90;;;;;;;;;;4910946;29;20237;-71
2022/06/21 15:57:15;;;;;;;1999.90;999.90;;;;;;;;;;4923720;29;20222;-70
2022/06/21 16:00:04;;;;;;;1999.90;999.90;;;;;;;;;;4932618;29;20842;-71
2022/06/21 16:02:54;;;;;;;1999.90;999.90;;;;;;;;;;4935133;29;20412;-72
2022/06/21 16:05:56;;;;;;;1999.90;999.90;;;;;;;;;;4924697;29;20737;-71
2022/06/21 16:08:42;;;;;;;1999.90;999.90;;;;;;;;;;4923729;29;20212;-70
2022/06/21 16:11:28;;;;;;;1999.90;999.90;;;;;;;;;;4936394;29;20643;-71
2022/06/21 16:14:17;;;;;;;1999.90;999.90;;;;;;;;;;4936244;29;20249;-70
2022/06/21 16:17:07;;;;;;;1999.90;999.90;;;;;;;;;;4924838;29;20580;-71
2022/06/21 16:19:56;;;;;;;1999.90;999.90;;;;;;;;;;4898398;29;20234;-71
2022/06/21 16:22:51;;;;;;;1999.90;999.90;;;;;;;;;;4905461;29;20245;-71
2022/06/21 16:25:39;;;;;;;1999.90;999.90;;;;;;;;;;4927679;29;20203;-70
2022/06/21 16:28:27;;;;;;;1999.90;999.90;;;;;;;;;;4925287;29;20210;-71
2022/06/21 16:34:22;;;;;;;1999.90;999.90;;;;;;;;;;4922855;29;20808;-71
2022/06/21 16:37:12;;;;;;;1999.90;999.90;;;;;;;;;;4924617;29;20220;-72
2022/06/21 16:39:59;;;;;;;1999.90;999.90;;;;;;;;;;4916971;29;20211;-71
2022/06/21 16:42:54;;;;;;;1999.90;999.90;;;;;;;;;;4917057;29;20226;-71
2022/06/21 16:45:41;;;;;;;1999.90;999.90;;;;;;;;;;4919759;29;20230;-71
2022/06/21 16:48:28;;;;;;;1999.90;999.90;;;;;;;;;;4922935;29;20850;-70
2022/06/21 16:51:16;;;;;;;1999.90;999.90;;;;;;;;;;4920235;29;20242;-70
2022/06/21 16:54:01;;;;;;;1999.90;999.90;;;;;;;;;;4921604;29;20236;-70
2022/06/21 16:56:46;;;;;;;1999.90;999.90;;;;;;;;;;4919101;29;20336;-70
2022/06/21 16:59:42;;;;;;;1999.90;999.90;;;;;;;;;;4922153;29;20735;-71
2022/06/21 17:02:30;;;;;;;1999.90;999.90;;;;;;;;;;4927548;29;20762;-70
2022/06/21 17:05:18;;;;;;;1999.90;999.90;;;;;;;;;;4918686;29;20323;-71
2022/06/21 17:08:05;;;;;;;1999.90;999.90;;;;;;;;;;4915056;29;20215;-71
2022/06/21 17:14:01;;;;;;;1999.90;999.90;;;;;;;;;;4926159;29;20646;-71
2022/06/21 17:16:50;;;;;;;1999.90;999.90;;;;;;;;;;4935454;29;20347;-71
2022/06/21 17:19:49;;;;;;;1999.90;999.90;;;;;;;;;;4935185;29;20222;-71
2022/06/21 17:22:37;;;;;;;1999.90;999.90;;;;;;;;;;4934895;29;20751;-71
2022/06/21 17:25:24;;;;;;;1999.90;999.90;;;;;;;;;;4929916;29;20260;-71
2022/06/21 17:28:13;;;;;;;1999.90;999.90;;;;;;;;;;4917418;29;20779;-71
2022/06/21 17:31:01;;;;;;;1999.90;999.90;;;;;;;;;;4925374;29;20299;-70
2022/06/21 17:33:49;;;;;;;1999.90;999.90;;;;;;;;;;4914370;29;20243;-70
2022/06/21 17:36:35;;;;;;;1999.90;999.90;;;;;;;;;;4918847;29;21036;-70
2022/06/21 17:39:24;;;;;;;1999.90;999.90;;;;;;;;;;4933708;29;20222;-71
2022/06/21 17:42:14;;;;;;;1999.90;999.90;;;;;;;;;;4934950;29;20228;-71
2022/06/21 17:45:02;;;;;;;1999.90;999.90;;;;;;;;;;4932671;29;20785;-71
2022/06/21 17:47:48;;;;;;;1999.90;999.90;;;;;;;;;;4918200;29;20206;-71
2022/06/21 17:50:36;;;;;;;1999.90;999.90;;;;;;;;;;4914612;29;20218;-71
2022/06/21 17:53:24;;;;;;;1999.90;999.90;;;;;;;;;;4922683;29;20214;-71
2022/06/21 17:56:11;;;;;;;1999.90;999.90;;;;;;;;;;4915701;29;20209;-71
2022/06/21 17:58:58;;;;;;;1999.90;999.90;;;;;;;;;;4921025;29;20271;-72
2022/06/21 18:01:46;;;;;;;1999.90;999.90;;;;;;;;;;4934513;29;20256;-71
2022/06/21 18:04:45;;;;;;;1999.90;999.90;;;;;;;;;;4931657;29;20210;-71
2022/06/21 18:07:37;;;;;;;1999.90;999.90;;;;;;;;;;4910787;29;20434;-71
2022/06/21 18:10:27;;;;;;;1999.90;999.90;;;;;;;;;;4907907;29;20283;-71
2022/06/21 18:13:17;;;;;;;1999.90;999.90;;;;;;;;;;4920809;29;20343;-71
2022/06/21 18:16:07;;;;;;;1999.90;999.90;;;;;;;;;;4911843;29;20707;-70
2022/06/21 18:19:01;;;;;;;1999.90;999.90;;;;;;;;;;4920284;29;20210;-71
2022/06/21 18:21:49;;;;;;;1999.90;999.90;;;;;;;;;;4913855;29;20527;-71
2022/06/21 18:24:39;;;;;;;1999.90;999.90;;;;;;;;;;4925834;29;20457;-71
2022/06/21 18:27:26;;;;;;;1999.90;999.90;;;;;;;;;;4910606;29;20222;-70
2022/06/21 18:30:15;;;;;;;1999.90;999.90;;;;;;;;;;4912101;29;20274;-71
2022/06/21 18:33:03;;;;;;;1999.90;999.90;;;;;;;;;;4908687;29;20698;-70
2022/06/21 18:35:52;;;;;;;1999.90;999.90;;;;;;;;;;4924514;29;20710;-70
2022/06/21 18:38:44;;;;;;;1999.90;999.90;;;;;;;;;;4913082;29;20226;-71
2022/06/21 18:41:32;;;;;;;1999.90;999.90;;;;;;;;;;4911587;29;20734;-71
2022/06/21 18:44:25;;;;;;;1999.90;999.90;;;;;;;;;;4900248;29;20262;-71
2022/06/21 18:47:17;;;;;;;1999.90;999.90;;;;;;;;;;4925219;29;20578;-71
2022/06/21 18:50:09;;;;;;;1999.90;999.90;;;;;;;;;;4918449;29;20707;-71
2022/06/21 18:52:58;;;;;;;1999.90;999.90;;;;;;;;;;4915851;29;20210;-71
2022/06/21 18:55:46;;;;;;;1999.90;999.90;;;;;;;;;;4909742;29;20234;-71
2022/06/21 18:58:40;;;;;;;1999.90;999.90;;;;;;;;;;4919035;29;20206;-70
2022/06/21 19:01:30;;;;;;;1999.90;999.90;;;;;;;;;;4913233;29;20628;-71
2022/06/21 19:04:17;;;;;;;1999.90;999.90;;;;;;;;;;4924302;29;20211;-71
2022/06/21 19:10:13;;;;;;;1999.90;999.90;;;;;;;;;;4924000;29;20209;-71
2022/06/21 19:12:58;;;;;;;1999.90;999.90;;;;;;;;;;4925209;29;20209;-70
2022/06/21 19:15:47;;;;;;;1999.90;999.90;;;;;;;;;;4918346;29;20233;-71
2022/06/21 19:18:40;;;;;;;1999.90;999.90;;;;;;;;;;4909282;29;20220;-71
2022/06/21 19:21:31;;;;;;;1999.90;999.90;;;;;;;;;;4915747;29;20297;-71
2022/06/21 19:24:37;;;;;;;1999.90;999.90;;;;;;;;;;4914732;29;20222;-71
2022/06/21 19:27:27;;;;;;;1999.90;999.90;;;;;;;;;;4915731;29;20681;-69
2022/06/21 19:30:19;;;;;;;1999.90;999.90;;;;;;;;;;4913443;29;20206;-71
2022/06/21 19:33:16;;;;;;;1999.90;999.90;;;;;;;;;;4912950;29;20211;-70
2022/06/21 19:36:06;;;;;;;1999.90;999.90;;;;;;;;;;4916035;29;20230;-71
2022/06/21 19:39:03;;;;;;;1999.90;999.90;;;;;;;;;;4914768;29;20327;-70
2022/06/21 19:41:55;;;;;;;1999.90;999.90;;;;;;;;;;4919890;29;20232;-71
2022/06/21 19:45:08;;;;;;;1999.90;999.90;;;;;;;;;;4920815;29;20201;-70
2022/06/21 19:47:55;;;;;;;1999.90;999.90;;;;;;;;;;4898164;29;20318;-71
2022/06/21 19:50:41;;;;;;;1999.90;999.90;;;;;;;;;;4925603;29;20209;-71
2022/06/21 19:53:50;;;;;;;1999.90;999.90;;;;;;;;;;4916880;29;20412;-71
2022/06/21 19:56:47;;;;;;;1999.90;999.90;;;;;;;;;;4907067;29;20254;-71
2022/06/21 19:59:32;;;;;;;1999.90;999.90;;;;;;;;;;4917550;29;20715;-70
2022/06/21 20:02:35;;;;;;;1999.90;999.90;;;;;;;;;;4922367;29;20268;-69
2022/06/21 20:05:22;;;;;;;1999.90;999.90;;;;;;;;;;4925422;29;20211;-70
2022/06/21 20:08:09;;;;;;;1999.90;999.90;;;;;;;;;;4913491;29;20210;-69
2022/06/21 20:11:03;;;;;;;1999.90;999.90;;;;;;;;;;4928777;29;20232;-70
2022/06/21 20:13:50;;;;;;;1999.90;999.90;;;;;;;;;;4911241;29;20295;-70
2022/06/21 20:16:43;;;;;;;1999.90;999.90;;;;;;;;;;4916495;29;20212;-71
2022/06/21 20:19:42;;;;;;;1999.90;999.90;;;;;;;;;;4924946;29;20597;-71
2022/06/21 20:22:34;;;;;;;1999.90;999.90;;;;;;;;;;4905789;29;20241;-71